sensor_id;sensor_type;location;lat;lon;timestamp;temperature;humidity
5711;DHT22;61291;52.524;13.422;2023-03-13T00:00:28;7.10;99.90
5711;DHT22;61291;52.524;13.422;2023-03-13T00:02:54;7.10;99.90
5711;DHT22;61291;52.524;13.422;2023-03-13T00:05:19;7.20;99.90
5711;DHT22;61291;52.524;13.422;2023-03-13T00:07:45;7.30;99.90
5711;DHT22;61291;52.524;13.422;2023-03-13T00:10:10;7.30;99.90
5711;DHT22;61291;52.524;13.422;2023-03-13T00:12:36;7.30;99.90
5711;DHT22;61291;52.524;13.422;2023-03-13T00:15:01;7.30;99.90
5711;DHT22;61291;52.524;13.422;2023-03-13T00:17:27;7.30;99.90
5711;DHT22;61291;52.524;13.422;2023-03-13T00:19:53;7.30;99.90
5711;DHT22;61291;52.524;13.422;2023-03-13T00:22:20;7.30;99.90
5711;DHT22;61291;52.524;13.422;2023-03-13T00:24:45;7.40;99.90
5711;DHT22;61291;52.524;13.422;2023-03-13T00:27:11;7.40;99.90
5711;DHT22;61291;52.524;13.422;2023-03-13T00:29:36;7.40;99.90
5711;DHT22;61291;52.524;13.422;2023-03-13T00:32:02;7.40;99.90
5711;DHT22;61291;52.524;13.422;2023-03-13T00:34:27;7.50;99.90
5711;DHT22;61291;52.524;13.422;2023-03-13T00:36:53;7.40;99.90
5711;DHT22;61291;52.524;13.422;2023-03-13T00:39:20;7.50;99.90
5711;DHT22;61291;52.524;13.422;2023-03-13T00:41:46;7.50;99.90
5711;DHT22;61291;52.524;13.422;2023-03-13T00:44:11;7.60;99.90
5711;DHT22;61291;52.524;13.422;2023-03-13T00:46:37;7.60;99.90
5711;DHT22;61291;52.524;13.422;2023-03-13T00:49:03;7.60;99.90
5711;DHT22;61291;52.524;13.422;2023-03-13T00:51:29;7.60;99.90
5711;DHT22;61291;52.524;13.422;2023-03-13T00:53:56;7.60;99.90
5711;DHT22;61291;52.524;13.422;2023-03-13T00:56:24;7.60;99.90
5711;DHT22;61291;52.524;13.422;2023-03-13T00:58:50;7.70;99.90
5711;DHT22;61291;52.524;13.422;2023-03-13T01:01:27;7.60;99.90
5711;DHT22;61291;52.524;13.422;2023-03-13T01:03:59;7.70;99.90
5711;DHT22;61291;52.524;13.422;2023-03-13T01:06:27;7.70;99.90
5711;DHT22;61291;52.524;13.422;2023-03-13T01:08:53;7.70;99.90
5711;DHT22;61291;52.524;13.422;2023-03-13T01:11:22;7.70;99.90
5711;DHT22;61291;52.524;13.422;2023-03-13T01:13:48;7.70;99.90
5711;DHT22;61291;52.524;13.422;2023-03-13T01:16:18;7.70;99.90
5711;DHT22;61291;52.524;13.422;2023-03-13T01:18:48;7.80;99.90
5711;DHT22;61291;52.524;13.422;2023-03-13T01:21:15;7.80;99.90
5711;DHT22;61291;52.524;13.422;2023-03-13T01:23:40;7.80;99.90
5711;DHT22;61291;52.524;13.422;2023-03-13T01:26:07;7.80;99.90
5711;DHT22;61291;52.524;13.422;2023-03-13T01:28:34;7.90;99.90
5711;DHT22;61291;52.524;13.422;2023-03-13T01:31:01;7.90;99.90
5711;DHT22;61291;52.524;13.422;2023-03-13T01:33:34;7.90;99.90
5711;DHT22;61291;52.524;13.422;2023-03-13T01:36:01;7.90;99.90
5711;DHT22;61291;52.524;13.422;2023-03-13T01:38:27;7.90;99.90
5711;DHT22;61291;52.524;13.422;2023-03-13T01:40:52;7.90;99.90
5711;DHT22;61291;52.524;13.422;2023-03-13T01:43:26;7.90;99.90
5711;DHT22;61291;52.524;13.422;2023-03-13T01:51:11;7.90;99.90
5711;DHT22;61291;52.524;13.422;2023-03-13T01:53:41;7.90;99.90
5711;DHT22;61291;52.524;13.422;2023-03-13T01:56:13;7.90;99.90
5711;DHT22;61291;52.524;13.422;2023-03-13T01:58:40;7.90;99.90
5711;DHT22;61291;52.524;13.422;2023-03-13T02:01:05;8.00;99.90
5711;DHT22;61291;52.524;13.422;2023-03-13T02:03:32;7.90;99.90
5711;DHT22;61291;52.524;13.422;2023-03-13T02:05:59;7.90;99.90
5711;DHT22;61291;52.524;13.422;2023-03-13T02:08:37;8.00;99.90
5711;DHT22;61291;52.524;13.422;2023-03-13T02:11:16;8.00;99.90
5711;DHT22;61291;52.524;13.422;2023-03-13T02:13:44;8.00;99.90
5711;DHT22;61291;52.524;13.422;2023-03-13T02:16:10;8.00;99.90
5711;DHT22;61291;52.524;13.422;2023-03-13T02:18:36;8.10;99.90
5711;DHT22;61291;52.524;13.422;2023-03-13T02:21:35;8.00;99.90
5711;DHT22;61291;52.524;13.422;2023-03-13T02:24:30;8.00;99.90
5711;DHT22;61291;52.524;13.422;2023-03-13T02:26:57;8.00;99.90
5711;DHT22;61291;52.524;13.422;2023-03-13T02:29:24;8.00;99.90
5711;DHT22;61291;52.524;13.422;2023-03-13T02:31:50;8.00;99.90
5711;DHT22;61291;52.524;13.422;2023-03-13T02:38:07;8.00;99.90
5711;DHT22;61291;52.524;13.422;2023-03-13T02:40:37;8.10;99.90
5711;DHT22;61291;52.524;13.422;2023-03-13T02:43:08;8.00;99.90
5711;DHT22;61291;52.524;13.422;2023-03-13T02:45:34;8.00;99.90
5711;DHT22;61291;52.524;13.422;2023-03-13T02:47:59;8.00;99.90
5711;DHT22;61291;52.524;13.422;2023-03-13T02:50:25;8.00;99.90
5711;DHT22;61291;52.524;13.422;2023-03-13T02:52:55;8.00;99.90
5711;DHT22;61291;52.524;13.422;2023-03-13T02:55:29;8.10;99.90
5711;DHT22;61291;52.524;13.422;2023-03-13T02:57:55;8.10;99.90
5711;DHT22;61291;52.524;13.422;2023-03-13T03:00:21;8.10;99.90
5711;DHT22;61291;52.524;13.422;2023-03-13T03:02:51;8.10;99.90
5711;DHT22;61291;52.524;13.422;2023-03-13T03:05:17;8.20;99.90
5711;DHT22;61291;52.524;13.422;2023-03-13T03:07:42;8.20;99.90
5711;DHT22;61291;52.524;13.422;2023-03-13T03:10:08;8.20;99.90
5711;DHT22;61291;52.524;13.422;2023-03-13T03:12:34;8.20;99.90
5711;DHT22;61291;52.524;13.422;2023-03-13T03:14:59;8.30;99.90
5711;DHT22;61291;52.524;13.422;2023-03-13T03:17:25;8.30;99.90
5711;DHT22;61291;52.524;13.422;2023-03-13T03:19:50;8.30;99.90
5711;DHT22;61291;52.524;13.422;2023-03-13T03:22:16;8.30;99.90
5711;DHT22;61291;52.524;13.422;2023-03-13T03:24:41;8.30;99.90
5711;DHT22;61291;52.524;13.422;2023-03-13T03:27:07;8.30;99.90
5711;DHT22;61291;52.524;13.422;2023-03-13T03:29:32;8.40;99.90
5711;DHT22;61291;52.524;13.422;2023-03-13T03:31:58;8.40;99.90
5711;DHT22;61291;52.524;13.422;2023-03-13T03:34:23;8.30;99.90
5711;DHT22;61291;52.524;13.422;2023-03-13T03:36:49;8.40;99.90
5711;DHT22;61291;52.524;13.422;2023-03-13T03:39:14;8.40;99.90
5711;DHT22;61291;52.524;13.422;2023-03-13T03:41:39;8.40;99.90
5711;DHT22;61291;52.524;13.422;2023-03-13T03:44:05;8.40;99.90
5711;DHT22;61291;52.524;13.422;2023-03-13T03:46:31;8.30;99.90
5711;DHT22;61291;52.524;13.422;2023-03-13T03:48:56;8.30;99.90
5711;DHT22;61291;52.524;13.422;2023-03-13T03:51:22;8.40;99.90
5711;DHT22;61291;52.524;13.422;2023-03-13T03:53:47;8.40;99.90
5711;DHT22;61291;52.524;13.422;2023-03-13T03:56:13;8.30;99.90
5711;DHT22;61291;52.524;13.422;2023-03-13T03:58:38;8.30;99.90
5711;DHT22;61291;52.524;13.422;2023-03-13T04:01:04;8.30;99.90
5711;DHT22;61291;52.524;13.422;2023-03-13T04:03:29;8.30;99.90
5711;DHT22;61291;52.524;13.422;2023-03-13T04:05:55;8.30;99.90
5711;DHT22;61291;52.524;13.422;2023-03-13T04:08:21;8.30;99.90
5711;DHT22;61291;52.524;13.422;2023-03-13T04:10:47;8.30;99.90
5711;DHT22;61291;52.524;13.422;2023-03-13T04:13:12;8.40;99.90
5711;DHT22;61291;52.524;13.422;2023-03-13T04:15:39;8.40;99.90
5711;DHT22;61291;52.524;13.422;2023-03-13T04:18:04;8.40;99.90
5711;DHT22;61291;52.524;13.422;2023-03-13T04:20:30;8.40;99.90
5711;DHT22;61291;52.524;13.422;2023-03-13T04:22:56;8.40;99.90
5711;DHT22;61291;52.524;13.422;2023-03-13T04:25:21;8.40;99.90
5711;DHT22;61291;52.524;13.422;2023-03-13T04:27:47;8.40;99.90
5711;DHT22;61291;52.524;13.422;2023-03-13T04:30:13;8.40;99.90
5711;DHT22;61291;52.524;13.422;2023-03-13T04:32:38;8.40;99.90
5711;DHT22;61291;52.524;13.422;2023-03-13T04:35:04;8.40;99.90
5711;DHT22;61291;52.524;13.422;2023-03-13T04:37:30;8.40;99.90
5711;DHT22;61291;52.524;13.422;2023-03-13T04:39:55;8.40;99.90
5711;DHT22;61291;52.524;13.422;2023-03-13T04:42:21;8.40;99.90
5711;DHT22;61291;52.524;13.422;2023-03-13T04:44:46;8.30;99.90
5711;DHT22;61291;52.524;13.422;2023-03-13T04:47:12;8.40;99.90
5711;DHT22;61291;52.524;13.422;2023-03-13T04:49:37;8.40;99.90
5711;DHT22;61291;52.524;13.422;2023-03-13T04:52:03;8.40;99.90
5711;DHT22;61291;52.524;13.422;2023-03-13T04:54:29;8.30;99.90
5711;DHT22;61291;52.524;13.422;2023-03-13T04:56:54;8.40;99.90
5711;DHT22;61291;52.524;13.422;2023-03-13T04:59:20;8.40;99.90
5711;DHT22;61291;52.524;13.422;2023-03-13T05:01:45;8.40;99.90
5711;DHT22;61291;52.524;13.422;2023-03-13T05:04:11;8.40;99.90
5711;DHT22;61291;52.524;13.422;2023-03-13T05:06:37;8.40;99.90
5711;DHT22;61291;52.524;13.422;2023-03-13T05:09:03;8.40;99.90
5711;DHT22;61291;52.524;13.422;2023-03-13T05:11:29;8.40;99.90
5711;DHT22;61291;52.524;13.422;2023-03-13T05:13:54;8.40;99.90
5711;DHT22;61291;52.524;13.422;2023-03-13T05:16:20;8.40;99.90
5711;DHT22;61291;52.524;13.422;2023-03-13T05:18:45;8.40;99.90
5711;DHT22;61291;52.524;13.422;2023-03-13T05:21:11;8.40;99.90
5711;DHT22;61291;52.524;13.422;2023-03-13T05:23:36;8.40;99.90
5711;DHT22;61291;52.524;13.422;2023-03-13T05:26:02;8.40;99.90
5711;DHT22;61291;52.524;13.422;2023-03-13T05:28:28;8.40;99.90
5711;DHT22;61291;52.524;13.422;2023-03-13T05:30:53;8.50;99.90
5711;DHT22;61291;52.524;13.422;2023-03-13T05:33:19;8.50;99.90
5711;DHT22;61291;52.524;13.422;2023-03-13T05:35:45;8.50;99.90
5711;DHT22;61291;52.524;13.422;2023-03-13T05:38:11;8.50;99.90
5711;DHT22;61291;52.524;13.422;2023-03-13T05:40:36;8.50;99.90
5711;DHT22;61291;52.524;13.422;2023-03-13T05:43:02;8.50;99.90
5711;DHT22;61291;52.524;13.422;2023-03-13T05:45:28;8.50;99.90
5711;DHT22;61291;52.524;13.422;2023-03-13T05:47:53;8.50;99.90
5711;DHT22;61291;52.524;13.422;2023-03-13T05:50:19;8.50;99.90
5711;DHT22;61291;52.524;13.422;2023-03-13T05:52:45;8.60;99.90
5711;DHT22;61291;52.524;13.422;2023-03-13T05:55:10;8.60;99.90
5711;DHT22;61291;52.524;13.422;2023-03-13T05:57:36;8.60;99.90
5711;DHT22;61291;52.524;13.422;2023-03-13T06:00:02;8.60;99.90
5711;DHT22;61291;52.524;13.422;2023-03-13T06:02:28;8.70;99.90
5711;DHT22;61291;52.524;13.422;2023-03-13T06:04:54;8.70;99.90
5711;DHT22;61291;52.524;13.422;2023-03-13T06:07:19;8.60;99.90
5711;DHT22;61291;52.524;13.422;2023-03-13T06:09:45;8.70;99.90
5711;DHT22;61291;52.524;13.422;2023-03-13T06:12:11;8.70;99.90
5711;DHT22;61291;52.524;13.422;2023-03-13T06:14:36;8.70;99.90
5711;DHT22;61291;52.524;13.422;2023-03-13T06:17:03;8.80;99.90
5711;DHT22;61291;52.524;13.422;2023-03-13T06:19:29;8.80;99.90
5711;DHT22;61291;52.524;13.422;2023-03-13T06:21:55;8.80;99.90
5711;DHT22;61291;52.524;13.422;2023-03-13T06:24:21;8.80;99.90
5711;DHT22;61291;52.524;13.422;2023-03-13T06:26:50;8.80;99.90
5711;DHT22;61291;52.524;13.422;2023-03-13T06:29:16;8.90;99.90
5711;DHT22;61291;52.524;13.422;2023-03-13T06:31:42;8.80;99.90
5711;DHT22;61291;52.524;13.422;2023-03-13T06:34:10;8.90;99.90
5711;DHT22;61291;52.524;13.422;2023-03-13T06:36:35;8.80;99.90
5711;DHT22;61291;52.524;13.422;2023-03-13T06:39:04;8.80;99.90
5711;DHT22;61291;52.524;13.422;2023-03-13T06:41:30;8.90;99.90
5711;DHT22;61291;52.524;13.422;2023-03-13T06:43:57;8.90;99.90
5711;DHT22;61291;52.524;13.422;2023-03-13T06:46:23;9.00;99.90
5711;DHT22;61291;52.524;13.422;2023-03-13T06:48:49;9.10;99.90
5711;DHT22;61291;52.524;13.422;2023-03-13T06:51:17;9.30;99.90
5711;DHT22;61291;52.524;13.422;2023-03-13T06:53:43;9.40;99.90
5711;DHT22;61291;52.524;13.422;2023-03-13T06:56:09;9.50;99.90
5711;DHT22;61291;52.524;13.422;2023-03-13T06:58:35;9.50;99.90
5711;DHT22;61291;52.524;13.422;2023-03-13T07:01:12;9.60;99.90
5711;DHT22;61291;52.524;13.422;2023-03-13T07:03:38;9.60;99.90
5711;DHT22;61291;52.524;13.422;2023-03-13T07:06:06;9.70;99.90
5711;DHT22;61291;52.524;13.422;2023-03-13T07:08:32;9.70;99.90
5711;DHT22;61291;52.524;13.422;2023-03-13T07:10:59;9.80;99.90
5711;DHT22;61291;52.524;13.422;2023-03-13T07:13:25;9.90;99.90
5711;DHT22;61291;52.524;13.422;2023-03-13T07:15:50;9.90;99.90
5711;DHT22;61291;52.524;13.422;2023-03-13T07:18:16;10.00;99.90
5711;DHT22;61291;52.524;13.422;2023-03-13T07:20:42;10.10;99.90
5711;DHT22;61291;52.524;13.422;2023-03-13T07:23:08;10.20;99.90
5711;DHT22;61291;52.524;13.422;2023-03-13T07:25:34;10.40;99.90
5711;DHT22;61291;52.524;13.422;2023-03-13T07:27:59;10.30;99.90
5711;DHT22;61291;52.524;13.422;2023-03-13T07:30:26;10.30;99.90
5711;DHT22;61291;52.524;13.422;2023-03-13T07:32:51;10.20;99.90
5711;DHT22;61291;52.524;13.422;2023-03-13T07:35:17;10.10;99.90
5711;DHT22;61291;52.524;13.422;2023-03-13T07:37:42;10.00;99.90
5711;DHT22;61291;52.524;13.422;2023-03-13T07:40:09;10.10;99.90
5711;DHT22;61291;52.524;13.422;2023-03-13T07:42:34;10.20;99.90
5711;DHT22;61291;52.524;13.422;2023-03-13T07:45:00;10.40;99.90
5711;DHT22;61291;52.524;13.422;2023-03-13T07:47:25;10.40;99.90
5711;DHT22;61291;52.524;13.422;2023-03-13T07:49:51;10.40;99.90
5711;DHT22;61291;52.524;13.422;2023-03-13T07:52:18;10.40;99.90
5711;DHT22;61291;52.524;13.422;2023-03-13T07:54:43;10.50;99.90
5711;DHT22;61291;52.524;13.422;2023-03-13T07:57:09;10.60;99.90
5711;DHT22;61291;52.524;13.422;2023-03-13T07:59:34;10.60;99.90
5711;DHT22;61291;52.524;13.422;2023-03-13T08:02:01;10.70;99.90
5711;DHT22;61291;52.524;13.422;2023-03-13T08:04:26;10.80;99.90
5711;DHT22;61291;52.524;13.422;2023-03-13T08:06:52;10.80;99.90
5711;DHT22;61291;52.524;13.422;2023-03-13T08:09:19;10.80;99.90
5711;DHT22;61291;52.524;13.422;2023-03-13T08:11:44;10.70;99.90
5711;DHT22;61291;52.524;13.422;2023-03-13T08:14:11;10.70;99.90
5711;DHT22;61291;52.524;13.422;2023-03-13T08:16:36;10.60;99.90
5711;DHT22;61291;52.524;13.422;2023-03-13T08:19:03;10.50;99.90
5711;DHT22;61291;52.524;13.422;2023-03-13T08:21:32;10.50;99.90
5711;DHT22;61291;52.524;13.422;2023-03-13T08:24:00;10.50;99.90
5711;DHT22;61291;52.524;13.422;2023-03-13T08:26:29;10.60;99.90
5711;DHT22;61291;52.524;13.422;2023-03-13T08:28:57;10.70;99.90
5711;DHT22;61291;52.524;13.422;2023-03-13T08:31:28;10.70;99.90
5711;DHT22;61291;52.524;13.422;2023-03-13T08:33:54;10.70;99.90
5711;DHT22;61291;52.524;13.422;2023-03-13T08:36:25;10.80;99.90
5711;DHT22;61291;52.524;13.422;2023-03-13T08:38:56;10.80;99.90
5711;DHT22;61291;52.524;13.422;2023-03-13T08:41:24;10.80;99.90
5711;DHT22;61291;52.524;13.422;2023-03-13T08:43:52;10.70;99.90
5711;DHT22;61291;52.524;13.422;2023-03-13T08:46:18;10.60;99.90
5711;DHT22;61291;52.524;13.422;2023-03-13T08:48:43;10.60;99.90
5711;DHT22;61291;52.524;13.422;2023-03-13T08:51:12;10.60;99.90
5711;DHT22;61291;52.524;13.422;2023-03-13T08:53:39;10.70;99.90
5711;DHT22;61291;52.524;13.422;2023-03-13T08:56:06;10.80;99.90
5711;DHT22;61291;52.524;13.422;2023-03-13T08:58:32;10.80;99.90
5711;DHT22;61291;52.524;13.422;2023-03-13T09:01:06;10.70;99.90
5711;DHT22;61291;52.524;13.422;2023-03-13T09:03:32;10.70;99.90
5711;DHT22;61291;52.524;13.422;2023-03-13T09:05:59;10.70;99.90
5711;DHT22;61291;52.524;13.422;2023-03-13T09:08:25;10.80;99.90
5711;DHT22;61291;52.524;13.422;2023-03-13T09:10:55;10.80;99.90
5711;DHT22;61291;52.524;13.422;2023-03-13T09:13:22;10.90;99.90
5711;DHT22;61291;52.524;13.422;2023-03-13T09:16:05;11.00;99.90
5711;DHT22;61291;52.524;13.422;2023-03-13T09:18:31;11.10;99.90
5711;DHT22;61291;52.524;13.422;2023-03-13T09:20:57;11.20;99.90
5711;DHT22;61291;52.524;13.422;2023-03-13T09:23:23;11.20;99.90
5711;DHT22;61291;52.524;13.422;2023-03-13T09:25:52;11.20;99.90
5711;DHT22;61291;52.524;13.422;2023-03-13T09:28:17;11.30;99.90
5711;DHT22;61291;52.524;13.422;2023-03-13T09:30:43;11.30;99.90
5711;DHT22;61291;52.524;13.422;2023-03-13T09:33:09;11.40;99.90
5711;DHT22;61291;52.524;13.422;2023-03-13T09:35:37;11.40;99.90
5711;DHT22;61291;52.524;13.422;2023-03-13T09:38:03;11.40;99.90
5711;DHT22;61291;52.524;13.422;2023-03-13T09:40:29;11.30;99.90
5711;DHT22;61291;52.524;13.422;2023-03-13T09:42:58;11.30;99.90
5711;DHT22;61291;52.524;13.422;2023-03-13T09:45:33;11.20;99.90
5711;DHT22;61291;52.524;13.422;2023-03-13T09:53:50;11.40;99.90
5711;DHT22;61291;52.524;13.422;2023-03-13T09:56:24;11.60;99.90
5711;DHT22;61291;52.524;13.422;2023-03-13T09:58:54;11.50;99.90
5711;DHT22;61291;52.524;13.422;2023-03-13T10:01:28;11.50;99.90
5711;DHT22;61291;52.524;13.422;2023-03-13T10:04:05;11.60;99.90
5711;DHT22;61291;52.524;13.422;2023-03-13T10:06:40;11.60;99.90
5711;DHT22;61291;52.524;13.422;2023-03-13T10:09:38;11.60;99.90
5711;DHT22;61291;52.524;13.422;2023-03-13T10:12:16;11.70;99.90
5711;DHT22;61291;52.524;13.422;2023-03-13T10:15:14;11.70;99.90
5711;DHT22;61291;52.524;13.422;2023-03-13T10:17:42;11.80;99.90
5711;DHT22;61291;52.524;13.422;2023-03-13T10:20:34;11.90;99.90
5711;DHT22;61291;52.524;13.422;2023-03-13T10:23:04;11.90;99.90
5711;DHT22;61291;52.524;13.422;2023-03-13T10:25:33;12.00;99.90
5711;DHT22;61291;52.524;13.422;2023-03-13T10:27:59;12.20;99.90
5711;DHT22;61291;52.524;13.422;2023-03-13T10:30:26;12.60;99.90
5711;DHT22;61291;52.524;13.422;2023-03-13T10:32:55;12.70;99.90
5711;DHT22;61291;52.524;13.422;2023-03-13T10:35:24;12.90;99.90
5711;DHT22;61291;52.524;13.422;2023-03-13T10:37:49;13.30;99.90
5711;DHT22;61291;52.524;13.422;2023-03-13T10:40:26;13.50;99.90
5711;DHT22;61291;52.524;13.422;2023-03-13T10:42:59;13.70;99.90
5711;DHT22;61291;52.524;13.422;2023-03-13T10:45:26;13.80;99.90
5711;DHT22;61291;52.524;13.422;2023-03-13T10:47:59;14.10;99.90
5711;DHT22;61291;52.524;13.422;2023-03-13T10:50:26;14.50;99.90
5711;DHT22;61291;52.524;13.422;2023-03-13T10:52:52;15.00;99.90
5711;DHT22;61291;52.524;13.422;2023-03-13T10:55:24;15.30;99.90
5711;DHT22;61291;52.524;13.422;2023-03-13T10:58:01;15.60;99.90
5711;DHT22;61291;52.524;13.422;2023-03-13T11:00:32;16.00;99.90
5711;DHT22;61291;52.524;13.422;2023-03-13T11:02:58;16.20;99.90
5711;DHT22;61291;52.524;13.422;2023-03-13T11:08:24;16.60;99.90
5711;DHT22;61291;52.524;13.422;2023-03-13T11:11:03;16.20;99.90
5711;DHT22;61291;52.524;13.422;2023-03-13T11:13:40;16.50;99.90
5711;DHT22;61291;52.524;13.422;2023-03-13T11:16:15;16.50;99.90
5711;DHT22;61291;52.524;13.422;2023-03-13T11:18:50;16.70;99.90
5711;DHT22;61291;52.524;13.422;2023-03-13T11:21:37;16.90;99.90
5711;DHT22;61291;52.524;13.422;2023-03-13T11:24:12;17.50;99.90
5711;DHT22;61291;52.524;13.422;2023-03-13T11:29:48;17.80;99.90
5711;DHT22;61291;52.524;13.422;2023-03-13T11:32:22;17.80;99.90
5711;DHT22;61291;52.524;13.422;2023-03-13T11:34:54;18.00;99.90
5711;DHT22;61291;52.524;13.422;2023-03-13T11:37:22;18.10;99.90
5711;DHT22;61291;52.524;13.422;2023-03-13T11:39:52;18.30;99.90
5711;DHT22;61291;52.524;13.422;2023-03-13T11:51:41;18.90;99.90
5711;DHT22;61291;52.524;13.422;2023-03-13T12:00:36;18.90;99.90
5711;DHT22;61291;52.524;13.422;2023-03-13T12:03:10;18.80;99.90
5711;DHT22;61291;52.524;13.422;2023-03-13T12:05:52;18.80;99.90
5711;DHT22;61291;52.524;13.422;2023-03-13T12:08:24;18.90;99.90
5711;DHT22;61291;52.524;13.422;2023-03-13T12:11:03;18.70;99.90
5711;DHT22;61291;52.524;13.422;2023-03-13T12:13:56;18.70;99.90
5711;DHT22;61291;52.524;13.422;2023-03-13T12:16:38;19.00;99.90
5711;DHT22;61291;52.524;13.422;2023-03-13T12:19:14;19.30;99.90
5711;DHT22;61291;52.524;13.422;2023-03-13T12:21:47;19.50;99.90
5711;DHT22;61291;52.524;13.422;2023-03-13T12:24:28;19.50;99.90
5711;DHT22;61291;52.524;13.422;2023-03-13T12:27:00;19.50;99.90
5711;DHT22;61291;52.524;13.422;2023-03-13T12:32:36;19.50;99.90
5711;DHT22;61291;52.524;13.422;2023-03-13T12:35:24;19.40;99.90
5711;DHT22;61291;52.524;13.422;2023-03-13T12:37:57;19.30;99.90
5711;DHT22;61291;52.524;13.422;2023-03-13T12:43:31;19.80;99.90
5711;DHT22;61291;52.524;13.422;2023-03-13T12:48:50;19.70;99.90
5711;DHT22;61291;52.524;13.422;2023-03-13T13:00:14;19.10;99.90
5711;DHT22;61291;52.524;13.422;2023-03-13T13:02:41;18.90;99.90
5711;DHT22;61291;52.524;13.422;2023-03-13T13:05:18;19.00;99.90
5711;DHT22;61291;52.524;13.422;2023-03-13T13:07:55;19.20;99.90
5711;DHT22;61291;52.524;13.422;2023-03-13T13:10:22;19.10;99.90
5711;DHT22;61291;52.524;13.422;2023-03-13T13:15:46;19.70;99.90
5711;DHT22;61291;52.524;13.422;2023-03-13T13:18:32;19.70;99.90
5711;DHT22;61291;52.524;13.422;2023-03-13T13:36:54;19.00;99.90
5711;DHT22;61291;52.524;13.422;2023-03-13T13:39:36;18.90;99.90
5711;DHT22;61291;52.524;13.422;2023-03-13T13:45:17;19.10;99.90
5711;DHT22;61291;52.524;13.422;2023-03-13T13:47:47;19.20;99.90
5711;DHT22;61291;52.524;13.422;2023-03-13T13:50:19;19.20;99.90
5711;DHT22;61291;52.524;13.422;2023-03-13T13:52:47;19.20;99.90
5711;DHT22;61291;52.524;13.422;2023-03-13T13:58:11;19.10;99.90
5711;DHT22;61291;52.524;13.422;2023-03-13T14:00:58;19.30;99.90
5711;DHT22;61291;52.524;13.422;2023-03-13T14:03:29;19.60;99.90
5711;DHT22;61291;52.524;13.422;2023-03-13T14:06:01;19.90;99.90
5711;DHT22;61291;52.524;13.422;2023-03-13T14:08:32;20.30;99.90
5711;DHT22;61291;52.524;13.422;2023-03-13T14:11:23;20.30;99.90
5711;DHT22;61291;52.524;13.422;2023-03-13T14:14:17;20.20;99.90
5711;DHT22;61291;52.524;13.422;2023-03-13T14:16:48;19.80;99.90
5711;DHT22;61291;52.524;13.422;2023-03-13T14:21:46;19.60;99.90
5711;DHT22;61291;52.524;13.422;2023-03-13T14:24:13;19.70;99.90
5711;DHT22;61291;52.524;13.422;2023-03-13T14:26:42;19.80;99.90
5711;DHT22;61291;52.524;13.422;2023-03-13T14:29:15;19.90;99.90
5711;DHT22;61291;52.524;13.422;2023-03-13T14:31:49;19.60;99.90
5711;DHT22;61291;52.524;13.422;2023-03-13T14:34:16;19.50;99.90
5711;DHT22;61291;52.524;13.422;2023-03-13T14:36:56;19.60;99.90
5711;DHT22;61291;52.524;13.422;2023-03-13T14:40:03;19.70;99.90
5711;DHT22;61291;52.524;13.422;2023-03-13T14:42:44;19.70;99.90
5711;DHT22;61291;52.524;13.422;2023-03-13T14:45:12;19.70;99.90
5711;DHT22;61291;52.524;13.422;2023-03-13T14:47:38;19.60;99.90
5711;DHT22;61291;52.524;13.422;2023-03-13T14:50:10;19.50;99.90
5711;DHT22;61291;52.524;13.422;2023-03-13T14:52:36;19.50;99.90
5711;DHT22;61291;52.524;13.422;2023-03-13T14:55:24;19.20;99.90
5711;DHT22;61291;52.524;13.422;2023-03-13T14:58:05;19.10;99.90
5711;DHT22;61291;52.524;13.422;2023-03-13T15:00:48;18.90;99.90
5711;DHT22;61291;52.524;13.422;2023-03-13T15:08:29;18.40;99.90
5711;DHT22;61291;52.524;13.422;2023-03-13T15:10:54;18.40;99.90
5711;DHT22;61291;52.524;13.422;2023-03-13T15:13:26;18.20;99.90
5711;DHT22;61291;52.524;13.422;2023-03-13T15:15:53;18.00;99.90
5711;DHT22;61291;52.524;13.422;2023-03-13T15:18:24;18.20;99.90
5711;DHT22;61291;52.524;13.422;2023-03-13T15:20:55;18.30;99.90
5711;DHT22;61291;52.524;13.422;2023-03-13T15:23:21;18.30;99.90
5711;DHT22;61291;52.524;13.422;2023-03-13T15:25:48;18.30;99.90
5711;DHT22;61291;52.524;13.422;2023-03-13T15:28:19;18.40;99.90
5711;DHT22;61291;52.524;13.422;2023-03-13T15:30:46;18.40;99.90
5711;DHT22;61291;52.524;13.422;2023-03-13T15:33:17;18.40;99.90
5711;DHT22;61291;52.524;13.422;2023-03-13T15:35:44;18.10;99.90
5711;DHT22;61291;52.524;13.422;2023-03-13T15:38:15;17.80;99.90
5711;DHT22;61291;52.524;13.422;2023-03-13T15:40:41;17.70;99.90
5711;DHT22;61291;52.524;13.422;2023-03-13T15:43:07;17.40;99.90
5711;DHT22;61291;52.524;13.422;2023-03-13T15:45:35;17.20;99.90
5711;DHT22;61291;52.524;13.422;2023-03-13T15:48:01;17.00;99.90
5711;DHT22;61291;52.524;13.422;2023-03-13T15:50:27;16.80;99.90
5711;DHT22;61291;52.524;13.422;2023-03-13T15:52:57;16.70;99.90
5711;DHT22;61291;52.524;13.422;2023-03-13T15:55:25;16.60;99.90
5711;DHT22;61291;52.524;13.422;2023-03-13T15:57:51;16.50;99.90
5711;DHT22;61291;52.524;13.422;2023-03-13T16:00:20;16.50;99.90
5711;DHT22;61291;52.524;13.422;2023-03-13T16:02:46;16.60;99.90
5711;DHT22;61291;52.524;13.422;2023-03-13T16:05:11;16.50;99.90
5711;DHT22;61291;52.524;13.422;2023-03-13T16:07:37;16.50;99.90
5711;DHT22;61291;52.524;13.422;2023-03-13T16:10:04;16.40;99.90
5711;DHT22;61291;52.524;13.422;2023-03-13T16:12:31;16.40;99.90
5711;DHT22;61291;52.524;13.422;2023-03-13T16:14:56;16.40;99.90
5711;DHT22;61291;52.524;13.422;2023-03-13T16:17:22;16.40;99.90
5711;DHT22;61291;52.524;13.422;2023-03-13T16:19:50;16.40;99.90
5711;DHT22;61291;52.524;13.422;2023-03-13T16:22:15;16.30;99.90
5711;DHT22;61291;52.524;13.422;2023-03-13T16:24:41;16.20;99.90
5711;DHT22;61291;52.524;13.422;2023-03-13T16:27:17;16.10;99.90
5711;DHT22;61291;52.524;13.422;2023-03-13T16:29:44;16.00;99.90
5711;DHT22;61291;52.524;13.422;2023-03-13T16:32:11;15.90;99.90
5711;DHT22;61291;52.524;13.422;2023-03-13T16:34:37;15.80;99.90
5711;DHT22;61291;52.524;13.422;2023-03-13T16:37:11;15.70;99.90
5711;DHT22;61291;52.524;13.422;2023-03-13T16:39:36;15.70;99.90
5711;DHT22;61291;52.524;13.422;2023-03-13T16:42:02;15.60;99.90
5711;DHT22;61291;52.524;13.422;2023-03-13T16:44:27;15.60;99.90
5711;DHT22;61291;52.524;13.422;2023-03-13T16:46:56;15.60;99.90
5711;DHT22;61291;52.524;13.422;2023-03-13T16:49:22;15.70;99.90
5711;DHT22;61291;52.524;13.422;2023-03-13T16:51:47;15.70;99.90
5711;DHT22;61291;52.524;13.422;2023-03-13T16:54:13;15.70;99.90
5711;DHT22;61291;52.524;13.422;2023-03-13T16:56:40;15.70;99.90
5711;DHT22;61291;52.524;13.422;2023-03-13T16:59:16;15.70;99.90
5711;DHT22;61291;52.524;13.422;2023-03-13T17:01:45;15.60;99.90
5711;DHT22;61291;52.524;13.422;2023-03-13T17:04:11;15.60;99.90
5711;DHT22;61291;52.524;13.422;2023-03-13T17:06:41;15.60;99.90
5711;DHT22;61291;52.524;13.422;2023-03-13T17:09:14;15.50;99.90
5711;DHT22;61291;52.524;13.422;2023-03-13T17:11:40;15.50;99.90
5711;DHT22;61291;52.524;13.422;2023-03-13T17:14:05;15.50;99.90